Domov               UVHVVR             MKGP            O straneh              
ZDRAVSTVENO VARSTVO RASTLIN
  MREŽA AGROMET. POSTAJ
 ► PROGNOSTIČNA OBVESTILA
AGROMETEOROLOŠKI PODATKI -
ARSO
OBVLADOVANJE TVEGANJ ZARADI
NEUGODNIH VREMENSKIH RAZMER
  ► NARAVNE NESREČE
  ► SUŠA/MOČA
  ► NAMAKANJE
  ► ŽLED (gozdarstvo)
KARTOGRAFSKI PRIKAZI
SPLETNE POVEZAVE
PROJEKTI IN PUBLIKACIJE

AGROMETEOROLOŠKA MREŽA: VREMENSKE POSTAJE IN FENOLOŠKA OPAZOVANJA

Pregled podatkov za lokacijo Blanca, meteorološka postaja 48319

Pregled senzorjev na lokaciji

ID Ime Zadnja
vrednost
Datum in čas
zadnje
spremembe
(Lokalni čas)
Tip
senzorja
4340 Omočenost lista (1,5 m) (U) 10 U 15.10.2021 21:30 A730WET
4456 Padavine (mm) 0 mm 15.10.2021 21:30 Generic 0.2 mm
4372 Relativna zračna vlaga (2 m) (%RH) 96 %RH 15.10.2021 21:30 Generic 0 - 100 %
4371 Temperatura (2 m) (°C) 4.5 °C 15.10.2021 21:30 Generic -40 - +60 °C

Pregled podatkov zadnjih 24 ur

Zap.
št.
Datum in čas
(Centralno
evropski čas)
Blanca
Omočenost
lista
(1,5
m)
Padavine Relativna
zračna
vlaga
(2
m)
Temperatura
(2
m)
1 15.10.2021 21:30
2 15.10.2021 21:00
3 15.10.2021 20:30 10 0 96.1 4.5
4 15.10.2021 20:00 10 0 94.9 4.8
5 15.10.2021 19:30 10 0 92.5 5.3
6 15.10.2021 19:00 10 0 88.9 5.9
7 15.10.2021 18:30 9 0 83.1 7
8 15.10.2021 18:00 1 0 76.4 8
9 15.10.2021 17:30 0 0 69.3 9.4
10 15.10.2021 17:00 0 0 59.9 11.3
11 15.10.2021 16:30 0 0 54.9 13.1
12 15.10.2021 16:00 0 0 53.2 13.5
13 15.10.2021 15:30 0 0 53.3 13.8
14 15.10.2021 15:00 0 0 55.2 14
15 15.10.2021 14:30 0 0 54.5 13.8
16 15.10.2021 14:00 0 0 56.1 14.2
17 15.10.2021 13:30 0 0 57.3 14
18 15.10.2021 13:00 0 0 57.7 13.8
19 15.10.2021 12:30 0 0 61.1 13.4
20 15.10.2021 12:00 0 0 63.4 13
21 15.10.2021 11:30 0 0 65.2 12.6
22 15.10.2021 11:00 0 0 65.2 12.2
23 15.10.2021 10:30 0 0 68.7 11.5
24 15.10.2021 10:00 0 0 76 10.5
25 15.10.2021 09:30 0 0 93.2 9
26 15.10.2021 09:00 0 0 100 7.2
27 15.10.2021 08:30 4 0 100 5.9
28 15.10.2021 08:00 8 0 100 5.2
29 15.10.2021 07:30 9 0 100 4.7
30 15.10.2021 07:00 10 0 100 4.4
31 15.10.2021 06:30 10 0 100 4.6
32 15.10.2021 06:00 10 0 100 4.9
33 15.10.2021 05:30 10 0 100 5.1
34 15.10.2021 05:00 10 0 100 5.5
35 15.10.2021 04:30 10 0 100 5.9
36 15.10.2021 04:00 10 0 100 5.9
37 15.10.2021 03:30 10 0 100 6
38 15.10.2021 03:00 10 0 100 5.9
39 15.10.2021 02:30 10 0 100 5.9
40 15.10.2021 02:00 10 0 100 5.9
41 15.10.2021 01:30 10 0 100 5.9
42 15.10.2021 01:00 10 0 100 5.9
43 15.10.2021 00:30 10 0 100 6
44 15.10.2021 00:00 10 0 100 5.9
45 14.10.2021 23:30 10 0 100 5.9
46 14.10.2021 23:00 10 0 99.6 5.7
47 14.10.2021 22:30 10 0 99.1 5.8
48 14.10.2021 22:00 10 0 98.8 6
© 2011 Ministrstvo za kmetijstvo, gozdarstvo in prehrano. Vse pravice pridržane.